AAL2040 KSYR-KCLE
Flight info
| Callsign | AAL2040 |
|---|---|
| Flight time | 1h 0m |
| Altitude | 38000 |
| Route | SYR DINES THOME TRYBE4 |
| Aircraft | A319/M-SDE3FGHIRWY/LB1 |
Departure
| Time | 2026-04-29 19:24 |
|---|---|
| Airport | Syracuse Hancock International Airport (KSYR) |
Arrival
| Time | 2026-04-29 20:25 |
|---|---|
| Airport | Cleveland Hopkins International Airport (KCLE) |
| Time | Latitude | Longitude | Altitude | Speed | Heading |
|---|---|---|---|---|---|
| 2026-04-29 19:02 | 43.11255 | -76.11005 | 420 ft | 0 kts | 357° |
| 2026-04-29 19:16 | 43.11252 | -76.11005 | 420 ft | 2 kts | 357° |
| 2026-04-29 19:16 | 43.11237 | -76.11004 | 420 ft | 2 kts | 358° |
| 2026-04-29 19:16 | 43.11221 | -76.11002 | 420 ft | 2 kts | 1° |
| 2026-04-29 19:16 | 43.11207 | -76.11009 | 420 ft | 2 kts | 39° |
| 2026-04-29 19:17 | 43.11200 | -76.11019 | 420 ft | 0 kts | 59° |
| 2026-04-29 19:17 | 43.11197 | -76.11028 | 420 ft | 0 kts | 62° |
| 2026-04-29 19:19 | 43.11201 | -76.10977 | 420 ft | 8 kts | 90° |
| 2026-04-29 19:19 | 43.11204 | -76.10922 | 420 ft | 4 kts | 86° |
| 2026-04-29 19:20 | 43.11203 | -76.10880 | 420 ft | 7 kts | 103° |
| 2026-04-29 19:20 | 43.11162 | -76.10825 | 420 ft | 10 kts | 167° |
| 2026-04-29 19:20 | 43.11066 | -76.10819 | 419 ft | 15 kts | 178° |
| 2026-04-29 19:20 | 43.11001 | -76.10903 | 420 ft | 16 kts | 264° |
| 2026-04-29 19:21 | 43.10995 | -76.11083 | 420 ft | 20 kts | 266° |
| 2026-04-29 19:21 | 43.10988 | -76.11280 | 420 ft | 20 kts | 268° |
| 2026-04-29 19:21 | 43.10981 | -76.11478 | 423 ft | 22 kts | 268° |
| 2026-04-29 19:21 | 43.10976 | -76.11686 | 423 ft | 21 kts | 267° |
| 2026-04-29 19:22 | 43.10969 | -76.11887 | 423 ft | 20 kts | 267° |
| 2026-04-29 19:22 | 43.10961 | -76.12096 | 424 ft | 22 kts | 268° |
| 2026-04-29 19:22 | 43.10954 | -76.12304 | 424 ft | 21 kts | 267° |
| 2026-04-29 19:22 | 43.10949 | -76.12483 | 423 ft | 13 kts | 268° |
| 2026-04-29 19:23 | 43.10943 | -76.12584 | 423 ft | 8 kts | 255° |
| 2026-04-29 19:23 | 43.10927 | -76.12620 | 423 ft | 0 kts | 218° |
| 2026-04-29 19:23 | 43.10904 | -76.12632 | 423 ft | 10 kts | 185° |
| 2026-04-29 19:23 | 43.10824 | -76.12541 | 423 ft | 15 kts | 97° |
| 2026-04-29 19:24 | 43.10828 | -76.12333 | 423 ft | 46 kts | 88° |
| 2026-04-29 19:24 | 43.10856 | -76.11519 | 423 ft | 119 kts | 88° |
| 2026-04-29 19:24 | 43.10900 | -76.10104 | 532 ft | 165 kts | 89° |
| 2026-04-29 19:24 | 43.10970 | -76.08544 | 1145 ft | 170 kts | 92° |
| 2026-04-29 19:25 | 43.10843 | -76.06910 | 1891 ft | 171 kts | 107° |
| 2026-04-29 19:25 | 43.10619 | -76.05354 | 2634 ft | 172 kts | 108° |
| 2026-04-29 19:25 | 43.10369 | -76.03727 | 3264 ft | 182 kts | 109° |
| 2026-04-29 19:25 | 43.10095 | -76.02003 | 3869 ft | 195 kts | 109° |
| 2026-04-29 19:26 | 43.09791 | -76.00053 | 4241 ft | 224 kts | 106° |
| 2026-04-29 19:26 | 43.09859 | -75.97823 | 4829 ft | 253 kts | 72° |
| 2026-04-29 19:26 | 43.10971 | -75.95856 | 5449 ft | 277 kts | 35° |
| 2026-04-29 19:26 | 43.12808 | -75.94984 | 6107 ft | 292 kts | 359° |
| 2026-04-29 19:27 | 43.14746 | -75.95620 | 7002 ft | 289 kts | 325° |
| 2026-04-29 19:27 | 43.16095 | -75.97509 | 7934 ft | 280 kts | 292° |
| 2026-04-29 19:27 | 43.16483 | -76.00034 | 8822 ft | 273 kts | 263° |
| 2026-04-29 19:27 | 43.16294 | -76.02617 | 9691 ft | 277 kts | 262° |
| 2026-04-29 19:28 | 43.16233 | -76.05257 | 10518 ft | 284 kts | 266° |
| 2026-04-29 19:28 | 43.16334 | -76.08021 | 10998 ft | 302 kts | 271° |
| 2026-04-29 19:28 | 43.16577 | -76.10952 | 11438 ft | 320 kts | 274° |
| 2026-04-29 19:28 | 43.16920 | -76.13976 | 12073 ft | 329 kts | 275° |
| 2026-04-29 19:29 | 43.17327 | -76.17085 | 12884 ft | 332 kts | 276° |
| 2026-04-29 19:29 | 43.17756 | -76.20155 | 13641 ft | 335 kts | 276° |
| 2026-04-29 19:29 | 43.18206 | -76.23296 | 14392 ft | 338 kts | 277° |
| 2026-04-29 19:29 | 43.18670 | -76.26459 | 15161 ft | 340 kts | 277° |
| 2026-04-29 19:30 | 43.19132 | -76.29588 | 15940 ft | 341 kts | 277° |
| 2026-04-29 19:30 | 43.19606 | -76.32779 | 16692 ft | 342 kts | 277° |
| 2026-04-29 19:30 | 43.20076 | -76.35931 | 17413 ft | 343 kts | 278° |
| 2026-04-29 19:30 | 43.20550 | -76.39125 | 18110 ft | 345 kts | 278° |
| 2026-04-29 19:31 | 43.21030 | -76.42352 | 18822 ft | 347 kts | 278° |
| 2026-04-29 19:31 | 43.21514 | -76.45613 | 19495 ft | 349 kts | 278° |
| 2026-04-29 19:31 | 43.21992 | -76.48843 | 20154 ft | 351 kts | 278° |
| 2026-04-29 19:31 | 43.22480 | -76.52154 | 20755 ft | 355 kts | 278° |
| 2026-04-29 19:32 | 43.22967 | -76.55455 | 21360 ft | 358 kts | 277° |
| 2026-04-29 19:32 | 43.23463 | -76.58824 | 21955 ft | 360 kts | 277° |
| 2026-04-29 19:32 | 43.23956 | -76.62181 | 22520 ft | 363 kts | 277° |
| 2026-04-29 19:32 | 43.24448 | -76.65553 | 23040 ft | 366 kts | 277° |
| 2026-04-29 19:33 | 43.24953 | -76.69018 | 23624 ft | 368 kts | 277° |
| 2026-04-29 19:33 | 43.25448 | -76.72402 | 24188 ft | 369 kts | 277° |
| 2026-04-29 19:33 | 43.25954 | -76.75892 | 24727 ft | 371 kts | 277° |
| 2026-04-29 19:33 | 43.26458 | -76.79363 | 25230 ft | 374 kts | 276° |
| 2026-04-29 19:34 | 43.26960 | -76.82831 | 25714 ft | 377 kts | 276° |
| 2026-04-29 19:34 | 43.27468 | -76.86354 | 26196 ft | 379 kts | 276° |
| 2026-04-29 19:34 | 43.27983 | -76.89934 | 26697 ft | 382 kts | 276° |
| 2026-04-29 19:34 | 43.28492 | -76.93478 | 27194 ft | 383 kts | 276° |
| 2026-04-29 19:35 | 43.29014 | -76.97129 | 27667 ft | 386 kts | 276° |
| 2026-04-29 19:35 | 43.29530 | -77.00742 | 28105 ft | 388 kts | 276° |
| 2026-04-29 19:35 | 43.30038 | -77.04352 | 28541 ft | 390 kts | 275° |
| 2026-04-29 19:35 | 43.30199 | -77.08075 | 28952 ft | 386 kts | 262° |
| 2026-04-29 19:36 | 43.29738 | -77.11681 | 29383 ft | 383 kts | 251° |
| 2026-04-29 19:36 | 43.28738 | -77.15018 | 29821 ft | 381 kts | 240° |
| 2026-04-29 19:36 | 43.27244 | -77.17996 | 30216 ft | 383 kts | 230° |
| 2026-04-29 19:36 | 43.25423 | -77.20692 | 30602 ft | 385 kts | 227° |
| 2026-04-29 19:37 | 43.23585 | -77.23350 | 30974 ft | 387 kts | 227° |
| 2026-04-29 19:37 | 43.22336 | -77.25151 | 31236 ft | 388 kts | 228° |
| 2026-04-29 19:37 | 43.19861 | -77.28711 | 31813 ft | 387 kts | 227° |
| 2026-04-29 19:37 | 43.18016 | -77.31357 | 32333 ft | 384 kts | 227° |
| 2026-04-29 19:38 | 43.16171 | -77.34000 | 32802 ft | 382 kts | 228° |
| 2026-04-29 19:38 | 43.14337 | -77.36621 | 33218 ft | 382 kts | 228° |
| 2026-04-29 19:38 | 43.12511 | -77.39231 | 33622 ft | 381 kts | 228° |
| 2026-04-29 19:38 | 43.10664 | -77.41872 | 34030 ft | 380 kts | 227° |
| 2026-04-29 19:39 | 43.08837 | -77.44479 | 34428 ft | 379 kts | 228° |
| 2026-04-29 19:39 | 43.06982 | -77.47119 | 34747 ft | 378 kts | 228° |
| 2026-04-29 19:39 | 43.05150 | -77.49728 | 35004 ft | 378 kts | 228° |
| 2026-04-29 19:39 | 43.03316 | -77.52339 | 35213 ft | 379 kts | 228° |
| 2026-04-29 19:40 | 43.01487 | -77.54937 | 35404 ft | 379 kts | 228° |
| 2026-04-29 19:40 | 42.99633 | -77.57570 | 35599 ft | 380 kts | 228° |
| 2026-04-29 19:40 | 42.97800 | -77.60169 | 35765 ft | 381 kts | 228° |
| 2026-04-29 19:40 | 42.95954 | -77.62785 | 35940 ft | 382 kts | 228° |
| 2026-04-29 19:41 | 42.94111 | -77.65395 | 36135 ft | 384 kts | 227° |
| 2026-04-29 19:41 | 42.92238 | -77.68044 | 36344 ft | 386 kts | 227° |
| 2026-04-29 19:41 | 42.90367 | -77.70688 | 36565 ft | 387 kts | 228° |
| 2026-04-29 19:41 | 42.88496 | -77.73329 | 36754 ft | 389 kts | 227° |
| 2026-04-29 19:42 | 42.86589 | -77.76022 | 36952 ft | 391 kts | 228° |
| 2026-04-29 19:42 | 42.85345 | -77.77777 | 37065 ft | 392 kts | 227° |
| 2026-04-29 19:42 | 42.82783 | -77.81381 | 37291 ft | 395 kts | 228° |
| 2026-04-29 19:42 | 42.80873 | -77.84068 | 37445 ft | 397 kts | 228° |
| 2026-04-29 19:43 | 42.78959 | -77.86757 | 37586 ft | 399 kts | 228° |
| 2026-04-29 19:43 | 42.77031 | -77.89462 | 37757 ft | 400 kts | 228° |
| 2026-04-29 19:43 | 42.75095 | -77.92178 | 37808 ft | 402 kts | 228° |
| 2026-04-29 19:44 | 42.71213 | -77.97617 | 37812 ft | 403 kts | 228° |
| 2026-04-29 19:44 | 42.67306 | -78.03078 | 37810 ft | 403 kts | 228° |
| 2026-04-29 19:45 | 42.63406 | -78.08521 | 37808 ft | 403 kts | 228° |
| 2026-04-29 19:45 | 42.59482 | -78.13984 | 37804 ft | 403 kts | 228° |
| 2026-04-29 19:46 | 42.55571 | -78.19421 | 37805 ft | 402 kts | 228° |
| 2026-04-29 19:46 | 42.51656 | -78.24850 | 37801 ft | 402 kts | 228° |
| 2026-04-29 19:47 | 42.47734 | -78.30281 | 37798 ft | 401 kts | 228° |
| 2026-04-29 19:47 | 42.43851 | -78.35648 | 37795 ft | 401 kts | 228° |
| 2026-04-29 19:48 | 42.39933 | -78.41049 | 37794 ft | 402 kts | 228° |
| 2026-04-29 19:48 | 42.36010 | -78.46452 | 37790 ft | 402 kts | 228° |
| 2026-04-29 19:49 | 42.32126 | -78.51791 | 37789 ft | 401 kts | 228° |
| 2026-04-29 19:49 | 42.28198 | -78.57176 | 37786 ft | 401 kts | 229° |
| 2026-04-29 19:50 | 42.24274 | -78.62545 | 37785 ft | 400 kts | 228° |
| 2026-04-29 19:50 | 42.20340 | -78.67923 | 37787 ft | 400 kts | 227° |
| 2026-04-29 19:51 | 42.16650 | -78.73480 | 37783 ft | 399 kts | 233° |
| 2026-04-29 19:51 | 42.13518 | -78.79609 | 37791 ft | 397 kts | 240° |
| 2026-04-29 19:52 | 42.11014 | -78.86170 | 37796 ft | 396 kts | 247° |
| 2026-04-29 19:52 | 42.09080 | -78.93100 | 37789 ft | 395 kts | 250° |
| 2026-04-29 19:53 | 42.07252 | -79.00098 | 37799 ft | 395 kts | 250° |
| 2026-04-29 19:53 | 42.05439 | -79.07046 | 37801 ft | 396 kts | 250° |
| 2026-04-29 19:54 | 42.02695 | -79.17521 | 37701 ft | 398 kts | 250° |
| 2026-04-29 19:54 | 42.01788 | -79.20986 | 37463 ft | 395 kts | 250° |
| 2026-04-29 19:54 | 42.00879 | -79.24453 | 37161 ft | 393 kts | 250° |
| 2026-04-29 19:55 | 41.99979 | -79.27880 | 36767 ft | 390 kts | 250° |
| 2026-04-29 19:55 | 41.99074 | -79.31323 | 36239 ft | 388 kts | 249° |
| 2026-04-29 19:55 | 41.98188 | -79.34695 | 35705 ft | 389 kts | 249° |
| 2026-04-29 19:55 | 41.97290 | -79.38098 | 35183 ft | 392 kts | 249° |
| 2026-04-29 19:56 | 41.96367 | -79.41582 | 34505 ft | 398 kts | 248° |
| 2026-04-29 19:56 | 41.95444 | -79.45071 | 33702 ft | 401 kts | 248° |
| 2026-04-29 19:56 | 41.94521 | -79.48544 | 33348 ft | 393 kts | 248° |
| 2026-04-29 19:56 | 41.93610 | -79.51967 | 33095 ft | 393 kts | 248° |
| 2026-04-29 19:57 | 41.92689 | -79.55425 | 32834 ft | 394 kts | 248° |
| 2026-04-29 19:57 | 41.92073 | -79.57732 | 32663 ft | 395 kts | 248° |
| 2026-04-29 19:57 | 41.90844 | -79.62334 | 32322 ft | 396 kts | 248° |
| 2026-04-29 19:57 | 41.89906 | -79.65837 | 32067 ft | 397 kts | 247° |
| 2026-04-29 19:58 | 41.88960 | -79.69373 | 31813 ft | 398 kts | 247° |
| 2026-04-29 19:58 | 41.88011 | -79.72915 | 31554 ft | 399 kts | 248° |
| 2026-04-29 19:58 | 41.87069 | -79.76425 | 31298 ft | 400 kts | 248° |
| 2026-04-29 19:58 | 41.86132 | -79.79914 | 31043 ft | 401 kts | 248° |
| 2026-04-29 19:59 | 41.85185 | -79.83436 | 30797 ft | 399 kts | 248° |
| 2026-04-29 19:59 | 41.84259 | -79.86880 | 30545 ft | 398 kts | 248° |
| 2026-04-29 19:59 | 41.83309 | -79.90399 | 30283 ft | 397 kts | 248° |
| 2026-04-29 19:59 | 41.82379 | -79.93835 | 30015 ft | 395 kts | 248° |
| 2026-04-29 20:00 | 41.81450 | -79.97266 | 29752 ft | 393 kts | 248° |
| 2026-04-29 20:00 | 41.80515 | -80.00715 | 29477 ft | 391 kts | 248° |
| 2026-04-29 20:00 | 41.79586 | -80.04137 | 29200 ft | 389 kts | 248° |
| 2026-04-29 20:00 | 41.78676 | -80.07494 | 28901 ft | 387 kts | 248° |
| 2026-04-29 20:01 | 41.77762 | -80.10895 | 28591 ft | 385 kts | 248° |
| 2026-04-29 20:01 | 41.76857 | -80.14259 | 28206 ft | 382 kts | 248° |
| 2026-04-29 20:01 | 41.75968 | -80.17559 | 27769 ft | 379 kts | 248° |
| 2026-04-29 20:01 | 41.75080 | -80.20847 | 27315 ft | 376 kts | 248° |
| 2026-04-29 20:02 | 41.74193 | -80.24123 | 26845 ft | 373 kts | 248° |
| 2026-04-29 20:02 | 41.73312 | -80.27371 | 26377 ft | 370 kts | 248° |
| 2026-04-29 20:02 | 41.72440 | -80.30589 | 25904 ft | 367 kts | 248° |
| 2026-04-29 20:02 | 41.71867 | -80.32692 | 25599 ft | 365 kts | 248° |
| 2026-04-29 20:03 | 41.70711 | -80.36943 | 24968 ft | 361 kts | 248° |
| 2026-04-29 20:03 | 41.69867 | -80.40045 | 24500 ft | 358 kts | 248° |
| 2026-04-29 20:03 | 41.69018 | -80.43159 | 24025 ft | 355 kts | 248° |
| 2026-04-29 20:03 | 41.68173 | -80.46251 | 23552 ft | 352 kts | 248° |
| 2026-04-29 20:04 | 41.67343 | -80.49286 | 23085 ft | 349 kts | 248° |
| 2026-04-29 20:04 | 41.66514 | -80.52319 | 22676 ft | 345 kts | 248° |
| 2026-04-29 20:04 | 41.65690 | -80.55336 | 22528 ft | 345 kts | 248° |
| 2026-04-29 20:04 | 41.64876 | -80.58312 | 22037 ft | 344 kts | 248° |
| 2026-04-29 20:05 | 41.64056 | -80.61307 | 21575 ft | 341 kts | 248° |
| 2026-04-29 20:05 | 41.63251 | -80.64238 | 21112 ft | 338 kts | 248° |
| 2026-04-29 20:05 | 41.62450 | -80.67147 | 20666 ft | 336 kts | 248° |
| 2026-04-29 20:05 | 41.61648 | -80.70054 | 20221 ft | 334 kts | 248° |
| 2026-04-29 20:06 | 41.60839 | -80.72968 | 19760 ft | 332 kts | 248° |
| 2026-04-29 20:06 | 41.60040 | -80.75845 | 19303 ft | 331 kts | 248° |
| 2026-04-29 20:06 | 41.59244 | -80.78699 | 18825 ft | 330 kts | 248° |
| 2026-04-29 20:06 | 41.58443 | -80.81570 | 18360 ft | 328 kts | 248° |
| 2026-04-29 20:07 | 41.57653 | -80.84397 | 17883 ft | 327 kts | 248° |
| 2026-04-29 20:07 | 41.56862 | -80.87227 | 17453 ft | 326 kts | 248° |
| 2026-04-29 20:07 | 41.56069 | -80.90063 | 17013 ft | 324 kts | 248° |
| 2026-04-29 20:07 | 41.55284 | -80.92866 | 16563 ft | 322 kts | 248° |
| 2026-04-29 20:08 | 41.54511 | -80.95625 | 16118 ft | 321 kts | 248° |
| 2026-04-29 20:08 | 41.53984 | -80.97502 | 15821 ft | 319 kts | 248° |
| 2026-04-29 20:08 | 41.52952 | -81.01170 | 15258 ft | 314 kts | 249° |
| 2026-04-29 20:08 | 41.52236 | -81.03840 | 14835 ft | 306 kts | 252° |
| 2026-04-29 20:09 | 41.51740 | -81.06599 | 14384 ft | 303 kts | 258° |
| 2026-04-29 20:09 | 41.51492 | -81.09380 | 13986 ft | 302 kts | 263° |
| 2026-04-29 20:09 | 41.51361 | -81.12167 | 13569 ft | 302 kts | 264° |
| 2026-04-29 20:09 | 41.51243 | -81.14921 | 13130 ft | 303 kts | 265° |
| 2026-04-29 20:10 | 41.51124 | -81.17748 | 12648 ft | 304 kts | 265° |
| 2026-04-29 20:10 | 41.51010 | -81.20512 | 12211 ft | 304 kts | 265° |
| 2026-04-29 20:10 | 41.50890 | -81.23351 | 11755 ft | 304 kts | 266° |
| 2026-04-29 20:10 | 41.50769 | -81.26155 | 11294 ft | 305 kts | 265° |
| 2026-04-29 20:11 | 41.50539 | -81.28929 | 10836 ft | 305 kts | 262° |
| 2026-04-29 20:11 | 41.50171 | -81.31701 | 10408 ft | 299 kts | 260° |
| 2026-04-29 20:11 | 41.49798 | -81.34315 | 10255 ft | 273 kts | 260° |
| 2026-04-29 20:11 | 41.49455 | -81.36702 | 10119 ft | 258 kts | 260° |
| 2026-04-29 20:12 | 41.49122 | -81.39014 | 9999 ft | 253 kts | 260° |
| 2026-04-29 20:12 | 41.48791 | -81.41323 | 9648 ft | 255 kts | 260° |
| 2026-04-29 20:12 | 41.48456 | -81.43655 | 9268 ft | 257 kts | 260° |
| 2026-04-29 20:12 | 41.48120 | -81.45978 | 8903 ft | 258 kts | 260° |
| 2026-04-29 20:13 | 41.47780 | -81.48328 | 8542 ft | 259 kts | 260° |
| 2026-04-29 20:13 | 41.47435 | -81.50696 | 8185 ft | 260 kts | 260° |
| 2026-04-29 20:13 | 41.47090 | -81.53071 | 7829 ft | 260 kts | 260° |
| 2026-04-29 20:13 | 41.46749 | -81.55418 | 7484 ft | 261 kts | 261° |
| 2026-04-29 20:14 | 41.46366 | -81.57792 | 7130 ft | 261 kts | 254° |
| 2026-04-29 20:14 | 41.45578 | -81.59987 | 6982 ft | 260 kts | 239° |
| 2026-04-29 20:14 | 41.44467 | -81.61871 | 6983 ft | 262 kts | 233° |
| 2026-04-29 20:14 | 41.43270 | -81.63738 | 6982 ft | 262 kts | 232° |
| 2026-04-29 20:15 | 41.42083 | -81.65576 | 6975 ft | 261 kts | 232° |
| 2026-04-29 20:15 | 41.40914 | -81.67388 | 6721 ft | 259 kts | 232° |
| 2026-04-29 20:15 | 41.39747 | -81.69209 | 6349 ft | 260 kts | 232° |
| 2026-04-29 20:15 | 41.38588 | -81.71018 | 6164 ft | 250 kts | 232° |
| 2026-04-29 20:16 | 41.37485 | -81.72736 | 5918 ft | 236 kts | 232° |
| 2026-04-29 20:16 | 41.36449 | -81.74354 | 5675 ft | 224 kts | 232° |
| 2026-04-29 20:16 | 41.35449 | -81.75919 | 5382 ft | 221 kts | 233° |
| 2026-04-29 20:16 | 41.34452 | -81.77478 | 5125 ft | 220 kts | 231° |
| 2026-04-29 20:17 | 41.33414 | -81.78964 | 4873 ft | 221 kts | 230° |
| 2026-04-29 20:17 | 41.32355 | -81.80444 | 4628 ft | 221 kts | 229° |
| 2026-04-29 20:17 | 41.31280 | -81.81944 | 4370 ft | 222 kts | 230° |
| 2026-04-29 20:17 | 41.30215 | -81.83428 | 4144 ft | 221 kts | 230° |
| 2026-04-29 20:18 | 41.29153 | -81.84905 | 3996 ft | 221 kts | 230° |
| 2026-04-29 20:18 | 41.28086 | -81.86386 | 3969 ft | 219 kts | 230° |
| 2026-04-29 20:18 | 41.27037 | -81.87840 | 3700 ft | 221 kts | 230° |
| 2026-04-29 20:18 | 41.25954 | -81.89346 | 3294 ft | 230 kts | 230° |
| 2026-04-29 20:19 | 41.24837 | -81.90916 | 3009 ft | 232 kts | 230° |
| 2026-04-29 20:19 | 41.23736 | -81.92474 | 2988 ft | 232 kts | 230° |
| 2026-04-29 20:19 | 41.22612 | -81.94068 | 2986 ft | 233 kts | 230° |
| 2026-04-29 20:19 | 41.21528 | -81.95689 | 2984 ft | 233 kts | 238° |
| 2026-04-29 20:20 | 41.21004 | -81.97690 | 2974 ft | 224 kts | 273° |
| 2026-04-29 20:20 | 41.21433 | -81.99697 | 3002 ft | 218 kts | 305° |
| 2026-04-29 20:20 | 41.22387 | -82.01424 | 2991 ft | 216 kts | 311° |
| 2026-04-29 20:20 | 41.23499 | -82.02937 | 2978 ft | 215 kts | 330° |
| 2026-04-29 20:21 | 41.25004 | -82.03423 | 2977 ft | 216 kts | 6° |
| 2026-04-29 20:21 | 41.26547 | -82.02830 | 2996 ft | 218 kts | 19° |
| 2026-04-29 20:21 | 41.27964 | -82.02032 | 2988 ft | 218 kts | 21° |
| 2026-04-29 20:21 | 41.29356 | -82.01208 | 2981 ft | 213 kts | 22° |
| 2026-04-29 20:22 | 41.30724 | -82.00384 | 2980 ft | 209 kts | 22° |
| 2026-04-29 20:22 | 41.32008 | -81.99464 | 2973 ft | 207 kts | 33° |
| 2026-04-29 20:22 | 41.33076 | -81.98196 | 2859 ft | 205 kts | 42° |
| 2026-04-29 20:22 | 41.34020 | -81.96813 | 2578 ft | 198 kts | 46° |
| 2026-04-29 20:23 | 41.34877 | -81.95447 | 2398 ft | 184 kts | 47° |
| 2026-04-29 20:23 | 41.35684 | -81.94154 | 2142 ft | 173 kts | 46° |
| 2026-04-29 20:23 | 41.36445 | -81.92945 | 1880 ft | 159 kts | 47° |
| 2026-04-29 20:23 | 41.37147 | -81.91835 | 1641 ft | 145 kts | 47° |
| 2026-04-29 20:24 | 41.37795 | -81.90807 | 1419 ft | 131 kts | 46° |
| 2026-04-29 20:24 | 41.38370 | -81.89902 | 1255 ft | 122 kts | 46° |
| 2026-04-29 20:24 | 41.38930 | -81.89028 | 1093 ft | 121 kts | 46° |
| 2026-04-29 20:24 | 41.39482 | -81.88142 | 936 ft | 120 kts | 46° |
| 2026-04-29 20:25 | 41.40038 | -81.87266 | 786 ft | 119 kts | 46° |
| 2026-04-29 20:25 | 41.40546 | -81.86472 | 762 ft | 92 kts | 48° |
| 2026-04-29 20:25 | 41.40850 | -81.85989 | 774 ft | 49 kts | 49° |
| 2026-04-29 20:25 | 41.41017 | -81.85716 | 776 ft | 28 kts | 57° |
| 2026-04-29 20:26 | 41.41086 | -81.85488 | 777 ft | 23 kts | 78° |
| 2026-04-29 20:26 | 41.41124 | -81.85348 | 780 ft | 13 kts | 53° |
| 2026-04-29 20:26 | 41.41190 | -81.85225 | 782 ft | 19 kts | 51° |
| 2026-04-29 20:26 | 41.41279 | -81.85085 | 782 ft | 18 kts | 49° |
| 2026-04-29 20:27 | 41.41312 | -81.84961 | 784 ft | 13 kts | 120° |
| 2026-04-29 20:27 | 41.41265 | -81.84897 | 786 ft | 15 kts | 141° |
| 2026-04-29 20:27 | 41.41154 | -81.84774 | 788 ft | 16 kts | 138° |
| 2026-04-29 20:27 | 41.41099 | -81.84686 | 790 ft | 11 kts | 91° |
| 2026-04-29 20:28 | 41.41150 | -81.84585 | 790 ft | 13 kts | 53° |
| 2026-04-29 20:28 | 41.41122 | -81.84488 | 791 ft | 11 kts | 139° |
| 2026-04-29 20:28 | 41.41066 | -81.84422 | 792 ft | 9 kts | 135° |
| 2026-04-29 20:28 | 41.41060 | -81.84345 | 792 ft | 8 kts | 90° |
| 2026-04-29 20:29 | 41.41056 | -81.84260 | 793 ft | 9 kts | 102° |
| 2026-04-29 20:29 | 41.41030 | -81.84177 | 793 ft | 9 kts | 116° |
| 2026-04-29 20:29 | 41.41004 | -81.84103 | 794 ft | 8 kts | 112° |
| 2026-04-29 20:29 | 41.40969 | -81.84051 | 794 ft | 6 kts | 143° |
| 2026-04-29 20:30 | 41.40945 | -81.84027 | 794 ft | 0 kts | 143° |
| 2026-04-29 20:30 | 41.40944 | -81.84026 | 794 ft | 0 kts | 143° |